Time;durP1;ratioP1;P1;durP2;ratioP2;P2;SDS_P1;SDS_P2;PMS_P1;PMS_P2;Temp;Humidity;BMP_temperature;BMP_pressure;BME280_temperature;BME280_humidity;BME280_pressure;Samples;Min_cycle;Max_cycle;Signal;HPM_P1;HPM_P2
2023/09/26 00:00:15;;;;;;;5.18;4.22;;;19.40;83.40;;;;;;4218710;28;20072;-41
2023/09/26 00:02:56;;;;;;;8.13;4.68;;;19.40;83.40;;;;;;4219320;28;20768;-41
2023/09/26 00:05:38;;;;;;;8.82;5.10;;;19.40;83.40;;;;;;4219769;28;20054;-41
2023/09/26 00:08:19;;;;;;;6.13;4.20;;;19.50;83.40;;;;;;4219604;28;20053;-40
2023/09/26 00:11:00;;;;;;;4.60;4.20;;;19.50;83.40;;;;;;4219561;28;20054;-41
2023/09/26 00:13:42;;;;;;;4.55;4.03;;;19.40;83.30;;;;;;4222782;28;20093;-41
2023/09/26 00:16:22;;;;;;;6.32;4.38;;;19.40;83.30;;;;;;4222858;28;20054;-44
2023/09/26 00:19:04;;;;;;;5.90;4.50;;;19.40;83.30;;;;;;4223071;28;20059;-54
2023/09/26 00:21:47;;;;;;;4.97;4.40;;;19.40;83.30;;;;;;4209703;28;20200;-54
2023/09/26 00:24:27;;;;;;;4.65;4.30;;;19.40;83.40;;;;;;4222818;28;20035;-55
2023/09/26 00:27:09;;;;;;;6.63;4.40;;;19.40;83.30;;;;;;4223146;28;20121;-55
2023/09/26 00:29:50;;;;;;;5.15;4.40;;;19.40;83.30;;;;;;4230453;27;20046;-55
2023/09/26 00:32:32;;;;;;;5.35;4.32;;;19.40;83.30;;;;;;4239953;27;20176;-59
2023/09/26 00:35:13;;;;;;;4.93;4.50;;;19.40;83.30;;;;;;4222731;28;20417;-58
2023/09/26 00:37:55;;;;;;;6.80;5.10;;;19.40;83.20;;;;;;4210159;28;20184;-60
2023/09/26 00:40:36;;;;;;;5.05;4.55;;;19.40;83.30;;;;;;4222845;28;20120;-60
2023/09/26 00:43:22;;;;;;;5.32;4.82;;;19.40;83.20;;;;;;4210051;28;20046;-58
2023/09/26 00:46:04;;;;;;;4.97;4.47;;;19.40;83.30;;;;;;4210577;28;20374;-60
2023/09/26 00:48:45;;;;;;;6.35;4.80;;;19.40;83.30;;;;;;4232971;27;20050;-61
2023/09/26 00:51:26;;;;;;;5.05;4.45;;;19.40;83.30;;;;;;4222923;28;20402;-60
2023/09/26 00:54:10;;;;;;;5.03;4.30;;;19.40;83.30;;;;;;4222799;28;20497;-60
2023/09/26 00:56:51;;;;;;;4.50;4.20;;;19.40;83.30;;;;;;4222481;28;20058;-57
2023/09/26 00:59:34;;;;;;;4.72;4.10;;;19.40;83.30;;;;;;4222942;28;20496;-58
2023/09/26 01:02:15;;;;;;;8.02;4.60;;;19.40;83.30;;;;;;4222465;28;20193;-58
2023/09/26 01:04:56;;;;;;;6.32;5.22;;;19.40;83.60;;;;;;4223525;27;20185;-58
2023/09/26 01:07:39;;;;;;;7.07;6.05;;;19.40;84.50;;;;;;4221338;28;20398;-58
2023/09/26 01:10:21;;;;;;;7.40;5.82;;;19.40;83.60;;;;;;4220232;27;20050;-58
2023/09/26 01:13:03;;;;;;;9.82;5.65;;;19.40;83.60;;;;;;4226267;27;20046;-57
2023/09/26 01:15:44;;;;;;;7.50;6.40;;;19.40;83.60;;;;;;4209566;28;20197;-58
2023/09/26 01:18:26;;;;;;;11.85;7.05;;;19.40;83.60;;;;;;4231875;27;20058;-58
2023/09/26 01:21:08;;;;;;;9.05;6.45;;;19.40;84.50;;;;;;4238201;27;20456;-58
2023/09/26 01:23:55;;;;;;;10.48;6.82;;;19.40;83.60;;;;;;4238274;27;20054;-59
2023/09/26 01:26:37;;;;;;;10.13;7.00;;;19.30;83.40;;;;;;4226109;27;20386;-58
2023/09/26 01:29:19;;;;;;;9.20;6.90;;;19.40;83.60;;;;;;4197653;28;20058;-58
2023/09/26 01:32:00;;;;;;;7.30;6.28;;;19.30;83.50;;;;;;4222253;28;20066;-58
2023/09/26 01:34:40;;;;;;;8.18;6.65;;;19.30;83.50;;;;;;4222169;28;20580;-58
2023/09/26 01:37:22;;;;;;;8.35;6.32;;;19.30;83.50;;;;;;4224250;27;20064;-58
2023/09/26 01:40:15;;;;;;;7.18;6.47;;;19.30;83.40;;;;;;4236966;27;20099;-58
2023/09/26 01:42:55;;;;;;;10.23;6.10;;;19.30;83.40;;;;;;4235184;27;20172;-56
2023/09/26 01:45:36;;;;;;;8.45;5.93;;;19.30;83.40;;;;;;4221855;28;20195;-58
2023/09/26 01:48:17;;;;;;;8.23;6.20;;;19.30;83.50;;;;;;4220541;28;20050;-58
2023/09/26 01:50:58;;;;;;;6.88;6.28;;;19.30;83.60;;;;;;4221621;28;20551;-59
2023/09/26 01:53:39;;;;;;;8.38;6.05;;;19.30;83.60;;;;;;4228170;27;20082;-58
2023/09/26 01:56:21;;;;;;;6.93;5.97;;;19.30;83.60;;;;;;4236958;27;20051;-58
2023/09/26 01:59:03;;;;;;;7.60;5.95;;;19.30;83.70;;;;;;4210855;28;20063;-58
2023/09/26 02:01:44;;;;;;;6.97;6.28;;;19.30;83.60;;;;;;4208437;28;20189;-58
2023/09/26 02:04:25;;;;;;;7.00;5.93;;;19.30;83.60;;;;;;4223241;27;20050;-58
2023/09/26 02:07:06;;;;;;;10.15;6.60;;;19.30;83.70;;;;;;4237383;27;20058;-59
2023/09/26 02:09:46;;;;;;;7.00;6.40;;;19.30;83.60;;;;;;4238625;27;20054;-58
2023/09/26 02:12:29;;;;;;;8.13;6.40;;;19.30;83.60;;;;;;4238291;27;20062;-54
2023/09/26 02:15:12;;;;;;;6.72;6.05;;;19.20;83.50;;;;;;4221193;28;20183;-54
2023/09/26 02:17:53;;;;;;;8.68;6.53;;;19.30;83.50;;;;;;4219788;28;20089;-53
2023/09/26 02:20:34;;;;;;;6.97;6.40;;;19.20;83.40;;;;;;4207644;28;20058;-52
2023/09/26 02:23:15;;;;;;;8.48;6.40;;;19.20;83.40;;;;;;4215924;27;20649;-53
2023/09/26 02:25:59;;;;;;;7.40;6.63;;;19.20;83.40;;;;;;4229468;27;20066;-48
2023/09/26 02:28:42;;;;;;;7.20;6.50;;;19.20;83.50;;;;;;4219951;28;20413;-51
2023/09/26 02:31:23;;;;;;;6.45;5.90;;;19.20;83.50;;;;;;4220502;28;20051;-53
2023/09/26 02:34:03;;;;;;;6.70;6.10;;;19.20;83.40;;;;;;4207791;28;20063;-54
2023/09/26 02:36:44;;;;;;;6.50;5.90;;;19.20;83.40;;;;;;4208260;28;20507;-51
2023/09/26 02:39:25;;;;;;;6.47;5.88;;;19.20;83.40;;;;;;4208442;28;20485;-52
2023/09/26 02:42:07;;;;;;;7.30;6.60;;;19.20;83.40;;;;;;4220760;28;20043;-58
2023/09/26 02:44:50;;;;;;;10.35;6.80;;;19.20;83.40;;;;;;4223952;27;20091;-58
2023/09/26 02:47:31;;;;;;;7.00;6.00;;;19.20;83.40;;;;;;4221880;27;20058;-58
2023/09/26 02:50:12;;;;;;;6.72;6.10;;;19.20;84.30;;;;;;4224928;28;20439;-58
2023/09/26 02:52:53;;;;;;;6.93;6.18;;;19.20;83.50;;;;;;4221230;27;20410;-58
2023/09/26 02:55:34;;;;;;;8.23;6.93;;;19.10;83.40;;;;;;4220460;28;20181;-58
2023/09/26 02:58:15;;;;;;;9.60;6.43;;;19.20;83.50;;;;;;4207017;28;20096;-58
2023/09/26 03:00:57;;;;;;;7.90;6.25;;;19.20;83.40;;;;;;4236770;28;20522;-58
2023/09/26 03:03:39;;;;;;;6.63;6.07;;;19.20;83.40;;;;;;4219255;28;20054;-58
2023/09/26 03:06:21;;;;;;;7.05;6.43;;;19.20;83.50;;;;;;4219840;28;20108;-58
2023/09/26 03:09:02;;;;;;;7.43;6.43;;;19.10;83.30;;;;;;4220764;28;20505;-58
2023/09/26 03:11:43;;;;;;;7.10;6.43;;;19.10;83.30;;;;;;4220638;28;20071;-58
2023/09/26 03:14:24;;;;;;;;;;;19.10;83.20;;;;;;4208216;28;20050;-58
2023/09/26 03:17:07;;;;;;;7.70;6.72;;;19.10;83.20;;;;;;4207638;28;19931;-57
2023/09/26 03:19:48;;;;;;;7.80;5.95;;;19.10;83.40;;;;;;4220199;28;20152;-58
2023/09/26 03:22:29;;;;;;;7.47;6.60;;;19.10;83.30;;;;;;4220398;28;20493;-59
2023/09/26 03:25:11;;;;;;;9.10;7.03;;;19.10;83.00;;;;;;4207374;28;20104;-59
2023/09/26 03:28:01;;;;;;;7.53;6.43;;;19.10;82.80;;;;;;4207502;28;20056;-59
2023/09/26 03:30:44;;;;;;;7.18;6.15;;;19.10;82.60;;;;;;4207723;28;20513;-58
2023/09/26 03:33:27;;;;;;;6.85;6.13;;;19.10;82.70;;;;;;4207880;28;20055;-58
2023/09/26 03:36:08;;;;;;;6.95;6.35;;;19.10;82.70;;;;;;4207903;28;20105;-59
2023/09/26 03:38:50;;;;;;;7.28;6.57;;;19.10;82.70;;;;;;4220161;28;20418;-59
2023/09/26 03:41:32;;;;;;;6.95;6.28;;;19.10;82.70;;;;;;4224319;28;20055;-58
2023/09/26 03:44:13;;;;;;;;;;;19.10;82.50;;;;;;4220187;28;20065;-59
2023/09/26 03:46:54;;;;;;;7.47;6.78;;;19.10;82.50;;;;;;4222363;28;20274;-59
2023/09/26 03:49:37;;;;;;;6.55;5.82;;;19.10;82.80;;;;;;4210816;28;20505;-58
2023/09/26 03:52:18;;;;;;;6.93;6.32;;;19.10;82.10;;;;;;4223065;28;20471;-59
2023/09/26 03:54:59;;;;;;;8.57;6.80;;;19.00;82.10;;;;;;4222672;28;20162;-59
2023/09/26 03:57:40;;;;;;;6.60;6.10;;;19.10;82.30;;;;;;4237248;27;20054;-59
2023/09/26 04:00:25;;;;;;;8.82;6.60;;;19.00;83.30;;;;;;4237391;27;20561;-59
2023/09/26 04:03:06;;;;;;;7.13;6.43;;;19.00;82.50;;;;;;4225475;27;20046;-59
2023/09/26 04:05:57;;;;;;;7.10;6.40;;;19.00;82.60;;;;;;4238948;27;20578;-59
2023/09/26 04:08:38;;;;;;;7.25;6.55;;;19.00;82.40;;;;;;4226320;27;20058;-59
2023/09/26 04:11:19;;;;;;;8.38;6.78;;;19.00;82.70;;;;;;4229601;27;20067;-53
2023/09/26 04:14:00;;;;;;;6.75;6.15;;;19.00;82.40;;;;;;4222713;28;20046;-52
2023/09/26 04:16:41;;;;;;;7.65;6.85;;;19.00;82.30;;;;;;4210452;28;20516;-53
2023/09/26 04:19:23;;;;;;;8.00;6.90;;;19.00;82.20;;;;;;4225249;27;20132;-59
2023/09/26 04:22:08;;;;;;;6.85;6.32;;;19.00;82.10;;;;;;4201887;28;20525;-58
2023/09/26 04:24:49;;;;;;;8.40;6.90;;;19.00;82.00;;;;;;4222753;28;20058;-51
2023/09/26 04:27:31;;;;;;;7.03;6.40;;;19.00;82.10;;;;;;4223075;28;20046;-54
2023/09/26 04:30:12;;;;;;;6.72;6.07;;;19.00;82.00;;;;;;4222658;27;20051;-51
2023/09/26 04:32:53;;;;;;;6.43;5.93;;;18.90;81.70;;;;;;4227071;27;20135;-52
2023/09/26 04:35:34;;;;;;;7.50;6.60;;;18.90;81.60;;;;;;4239333;27;20096;-60
2023/09/26 04:38:19;;;;;;;7.18;6.38;;;18.90;81.70;;;;;;4238343;27;20820;-59
2023/09/26 04:41:02;;;;;;;7.00;6.30;;;18.90;81.70;;;;;;4221583;27;20059;-59
2023/09/26 04:43:43;;;;;;;7.43;6.63;;;18.90;81.70;;;;;;4222270;28;20394;-57
2023/09/26 04:46:24;;;;;;;7.35;6.65;;;18.90;81.70;;;;;;4222656;28;20405;-57
2023/09/26 04:49:06;;;;;;;8.25;6.25;;;18.90;81.90;;;;;;4225355;27;20053;-52
2023/09/26 04:51:47;;;;;;;9.60;7.38;;;18.90;81.80;;;;;;4239110;27;20136;-58
2023/09/26 04:54:29;;;;;;;9.07;6.55;;;18.90;81.80;;;;;;4237754;27;20054;-56
2023/09/26 04:57:10;;;;;;;6.45;5.85;;;18.90;81.70;;;;;;4238235;27;20557;-56
2023/09/26 04:59:51;;;;;;;7.25;6.60;;;18.90;81.70;;;;;;4227479;27;20050;-50
2023/09/26 05:02:32;;;;;;;7.47;6.07;;;18.90;81.60;;;;;;4209444;28;20043;-51
2023/09/26 05:05:14;;;;;;;6.95;6.32;;;18.90;81.50;;;;;;4221427;28;20516;-53
2023/09/26 05:07:55;;;;;;;8.52;6.88;;;18.90;81.50;;;;;;4208889;28;20166;-54
2023/09/26 05:10:39;;;;;;;6.72;6.13;;;18.90;81.40;;;;;;4209554;28;20054;-53
2023/09/26 05:13:20;;;;;;;7.25;6.28;;;18.90;81.30;;;;;;4221616;28;20050;-51
2023/09/26 05:16:01;;;;;;;7.15;6.45;;;18.90;81.20;;;;;;4221485;28;20090;-53
2023/09/26 05:18:42;;;;;;;7.60;6.25;;;18.90;81.10;;;;;;4220048;28;20081;-53
2023/09/26 05:21:23;;;;;;;;;;;18.80;81.90;;;;;;4233885;27;20046;-53
2023/09/26 05:24:04;;;;;;;7.13;6.37;;;18.80;81.20;;;;;;4237770;27;19930;-57
2023/09/26 05:26:46;;;;;;;7.75;5.93;;;18.80;81.60;;;;;;4237908;27;20160;-55
2023/09/26 05:29:27;;;;;;;7.60;6.88;;;18.80;81.30;;;;;;4223353;27;20081;-57
2023/09/26 05:32:08;;;;;;;9.30;6.53;;;18.80;81.10;;;;;;4236971;27;20054;-49
2023/09/26 05:34:49;;;;;;;6.22;5.68;;;18.80;80.90;;;;;;4237918;27;20054;-51
2023/09/26 05:37:30;;;;;;;9.73;6.28;;;18.80;80.80;;;;;;4236897;27;20061;-52
2023/09/26 05:40:12;;;;;;;7.18;6.55;;;18.80;80.70;;;;;;4227820;27;20139;-53
2023/09/26 05:42:54;;;;;;;6.82;6.18;;;18.70;80.70;;;;;;4236954;27;20054;-51
2023/09/26 05:45:36;;;;;;;10.18;6.00;;;18.70;80.80;;;;;;4237693;27;20493;-52
2023/09/26 05:48:17;;;;;;;11.05;6.80;;;18.80;81.20;;;;;;4236639;27;20046;-57
2023/09/26 05:51:02;;;;;;;7.13;6.50;;;18.70;81.40;;;;;;4233145;27;20053;-59
2023/09/26 05:53:43;;;;;;;6.88;6.18;;;18.70;81.40;;;;;;4211173;28;20512;-58
2023/09/26 05:56:24;;;;;;;7.65;6.95;;;18.70;81.60;;;;;;4220855;28;20100;-58
2023/09/26 05:59:06;;;;;;;9.10;6.30;;;18.70;81.50;;;;;;4228221;27;20046;-61
2023/09/26 06:01:47;;;;;;;7.32;6.20;;;18.70;81.30;;;;;;4212438;27;20062;-49
2023/09/26 06:04:28;;;;;;;7.00;6.38;;;18.70;81.20;;;;;;4238231;27;20050;-58
2023/09/26 06:07:09;;;;;;;7.30;6.40;;;18.70;82.00;;;;;;4236479;27;20521;-58
2023/09/26 06:09:50;;;;;;;;;;;18.70;80.90;;;;;;4226372;27;20128;-59
2023/09/26 06:12:47;;;;;;;7.97;6.63;;;18.70;80.90;;;;;;4234330;27;19930;-52
2023/09/26 06:15:30;;;;;;;10.13;6.40;;;18.60;81.30;;;;;;4237735;27;20058;-53
2023/09/26 06:18:11;;;;;;;7.18;6.47;;;18.70;81.30;;;;;;4225472;27;20058;-50
2023/09/26 06:20:53;;;;;;;8.23;7.38;;;18.60;81.20;;;;;;4219203;28;20078;-50
2023/09/26 06:23:35;;;;;;;10.10;6.28;;;18.60;81.00;;;;;;4235735;27;20143;-55
2023/09/26 06:26:16;;;;;;;7.57;6.88;;;18.60;80.80;;;;;;4227959;27;20062;-55
2023/09/26 06:28:57;;;;;;;10.07;6.80;;;18.60;80.80;;;;;;4233204;27;20213;-49
2023/09/26 06:31:40;;;;;;;8.68;6.43;;;18.60;80.90;;;;;;4220742;28;20062;-58
2023/09/26 06:34:22;;;;;;;8.30;7.28;;;18.60;80.90;;;;;;4220390;28;20104;-58
2023/09/26 06:37:04;;;;;;;8.68;6.82;;;18.60;80.70;;;;;;4197111;27;20212;-58
2023/09/26 06:39:46;;;;;;;7.78;7.03;;;18.60;80.60;;;;;;4220357;28;20158;-59
2023/09/26 06:42:26;;;;;;;8.57;7.18;;;18.60;80.70;;;;;;4211360;28;20074;-58
2023/09/26 06:45:09;;;;;;;9.73;7.70;;;18.60;80.70;;;;;;4220680;28;20054;-58
2023/09/26 06:47:51;;;;;;;11.20;7.82;;;18.60;80.80;;;;;;4228057;27;20058;-57
2023/09/26 06:50:32;;;;;;;8.65;7.15;;;18.60;80.80;;;;;;4236485;27;20054;-58
2023/09/26 06:53:13;;;;;;;8.75;7.78;;;18.60;81.90;;;;;;4225169;27;20160;-58
2023/09/26 06:56:00;;;;;;;10.75;8.02;;;18.60;81.30;;;;;;4237144;27;20054;-57
2023/09/26 06:58:41;;;;;;;8.75;7.85;;;18.70;81.40;;;;;;4236205;27;20099;-58
2023/09/26 07:01:22;;;;;;;8.35;7.40;;;18.70;81.30;;;;;;4236852;28;20050;-54
2023/09/26 07:04:05;;;;;;;8.43;7.13;;;18.70;81.20;;;;;;4235532;28;20119;-53
2023/09/26 07:06:46;;;;;;;7.55;6.75;;;18.70;81.20;;;;;;4220236;28;20382;-53
2023/09/26 07:09:27;;;;;;;8.18;6.70;;;18.70;81.20;;;;;;4219198;28;20063;-54
2023/09/26 07:12:08;;;;;;;12.50;7.40;;;18.70;81.20;;;;;;4218297;28;20059;-52
2023/09/26 07:14:49;;;;;;;10.63;7.57;;;18.70;81.20;;;;;;4218060;28;20059;-52
2023/09/26 07:17:31;;;;;;;8.93;7.05;;;18.70;81.20;;;;;;4229687;28;20065;-52
2023/09/26 07:20:14;;;;;;;8.57;6.97;;;18.70;81.20;;;;;;4236182;27;20402;-58
2023/09/26 07:22:55;;;;;;;9.20;6.97;;;18.70;81.20;;;;;;4238981;27;20043;-58
2023/09/26 07:25:36;;;;;;;9.98;6.55;;;18.70;81.20;;;;;;4240580;27;20065;-58
2023/09/26 07:28:18;;;;;;;10.35;7.00;;;18.70;81.20;;;;;;4228278;27;20413;-58
2023/09/26 07:30:59;;;;;;;8.35;7.40;;;18.70;81.20;;;;;;4240767;27;20516;-58
2023/09/26 07:33:40;;;;;;;8.05;7.20;;;18.70;81.30;;;;;;4239849;27;20050;-58
2023/09/26 07:36:23;;;;;;;7.63;6.22;;;18.70;81.40;;;;;;4240322;27;20050;-58
2023/09/26 07:39:05;;;;;;;7.63;6.82;;;18.70;81.40;;;;;;4226109;27;20046;-58
2023/09/26 07:41:47;;;;;;;7.65;7.00;;;18.80;81.60;;;;;;4239608;27;20058;-58
2023/09/26 07:44:28;;;;;;;7.80;7.10;;;18.80;81.60;;;;;;4239881;27;20514;-58
2023/09/26 07:47:09;;;;;;;10.20;7.43;;;18.80;81.70;;;;;;4238489;27;20065;-58
2023/09/26 07:49:50;;;;;;;7.97;6.97;;;18.80;81.60;;;;;;4239878;27;20450;-58
2023/09/26 07:52:32;;;;;;;11.90;7.57;;;18.80;81.60;;;;;;4238629;27;20058;-58
2023/09/26 07:55:13;;;;;;;8.00;7.22;;;18.80;81.60;;;;;;4223661;27;20054;-56
2023/09/26 07:57:55;;;;;;;10.10;7.68;;;18.80;81.60;;;;;;4238860;27;20107;-57
2023/09/26 08:00:36;;;;;;;11.15;7.53;;;18.80;81.60;;;;;;4236058;27;20452;-52
2023/09/26 08:03:17;;;;;;;7.75;6.97;;;18.90;81.80;;;;;;4239499;27;20119;-54
2023/09/26 08:06:01;;;;;;;7.50;6.70;;;18.90;81.70;;;;;;4212254;27;20635;-53
2023/09/26 08:08:44;;;;;;;7.50;6.80;;;18.90;82.60;;;;;;4219717;28;20172;-56
2023/09/26 08:11:27;;;;;;;7.80;7.00;;;18.90;81.80;;;;;;4217590;28;20072;-54
2023/09/26 08:14:08;;;;;;;8.30;7.35;;;18.90;81.80;;;;;;4220448;28;20076;-54
2023/09/26 08:16:49;;;;;;;7.78;7.05;;;18.90;81.80;;;;;;4220414;28;20124;-54
2023/09/26 08:19:31;;;;;;;7.20;6.50;;;19.00;81.80;;;;;;4220158;28;20184;-54
2023/09/26 08:22:12;;;;;;;7.85;7.05;;;19.00;81.70;;;;;;4221009;28;20621;-54
2023/09/26 08:24:55;;;;;;;8.45;6.75;;;19.00;81.70;;;;;;4236851;27;20050;-53
2023/09/26 08:27:36;;;;;;;7.22;6.55;;;19.00;81.70;;;;;;4218687;28;20591;-55
2023/09/26 08:30:17;;;;;;;7.28;6.57;;;19.00;82.40;;;;;;4223004;27;20089;-57
2023/09/26 08:32:58;;;;;;;8.25;6.50;;;19.10;82.50;;;;;;4233672;27;20103;-55
2023/09/26 08:35:39;;;;;;;8.07;6.63;;;19.10;81.90;;;;;;4238834;27;20054;-57
2023/09/26 08:38:20;;;;;;;8.52;6.13;;;19.10;82.20;;;;;;4225499;27;20095;-57
2023/09/26 08:41:06;;;;;;;7.93;6.22;;;19.10;82.70;;;;;;4208408;27;20065;-57
2023/09/26 08:43:48;;;;;;;7.45;6.30;;;19.10;81.80;;;;;;4229887;27;20046;-57
2023/09/26 08:46:29;;;;;;;8.30;6.53;;;19.20;81.70;;;;;;4227782;27;20049;-58
2023/09/26 08:49:10;;;;;;;10.52;6.32;;;19.20;81.50;;;;;;4234170;27;20111;-58
2023/09/26 08:51:51;;;;;;;7.38;6.50;;;19.20;81.40;;;;;;4238407;27;20050;-58
2023/09/26 08:54:32;;;;;;;10.75;7.75;;;19.20;81.10;;;;;;4221533;28;20054;-58
2023/09/26 08:57:16;;;;;;;8.82;7.03;;;19.20;81.10;;;;;;4232710;27;20046;-58
2023/09/26 09:00:00;;;;;;;10.63;8.30;;;19.20;81.20;;;;;;4226034;27;20055;-59
2023/09/26 09:02:41;;;;;;;13.38;8.77;;;19.20;81.30;;;;;;4235556;27;20046;-57
2023/09/26 09:05:24;;;;;;;10.82;8.98;;;19.20;81.50;;;;;;4221782;27;20054;-58
2023/09/26 09:08:05;;;;;;;11.43;8.65;;;19.20;81.60;;;;;;4222466;28;20077;-52
2023/09/26 09:10:51;;;;;;;13.00;9.70;;;19.20;81.70;;;;;;4222025;28;20059;-55
2023/09/26 09:13:35;;;;;;;12.88;9.82;;;19.20;81.90;;;;;;4221624;28;20054;-58
2023/09/26 09:16:17;;;;;;;18.35;10.40;;;19.20;81.90;;;;;;4228177;27;20078;-54
2023/09/26 09:18:58;;;;;;;14.93;10.13;;;19.20;82.20;;;;;;4225287;27;20119;-50
2023/09/26 09:21:40;;;;;;;15.23;9.98;;;19.20;82.50;;;;;;4225241;27;20454;-53
2023/09/26 09:24:37;;;;;;;15.50;10.45;;;19.20;83.50;;;;;;4237777;27;20050;-51
2023/09/26 09:27:28;;;;;;;13.40;10.23;;;19.20;82.80;;;;;;4237715;27;20120;-53
2023/09/26 09:30:14;;;;;;;15.23;11.50;;;19.30;82.80;;;;;;4223197;27;20136;-54
2023/09/26 09:32:57;;;;;;;12.85;10.32;;;19.30;82.80;;;;;;4221131;28;20042;-51
2023/09/26 09:35:38;;;;;;;11.57;10.05;;;19.30;83.10;;;;;;4221508;28;20398;-59
2023/09/26 09:38:19;;;;;;;11.38;9.27;;;19.40;83.30;;;;;;4222894;27;20051;-57
2023/09/26 09:41:02;;;;;;;10.35;8.60;;;19.40;83.60;;;;;;4220984;28;20046;-57
2023/09/26 09:43:43;;;;;;;8.18;7.15;;;19.40;83.40;;;;;;4228868;27;20051;-58
2023/09/26 09:46:26;;;;;;;11.63;8.77;;;19.40;83.30;;;;;;4208689;28;20505;-59
2023/09/26 09:49:10;;;;;;;10.93;7.90;;;19.50;83.10;;;;;;4220894;28;20153;-60
2023/09/26 09:51:53;;;;;;;10.57;6.60;;;19.50;83.00;;;;;;4221665;28;20123;-57
2023/09/26 09:54:34;;;;;;;10.32;7.13;;;19.50;82.60;;;;;;4236018;27;20091;-57
2023/09/26 09:57:17;;;;;;;9.70;6.68;;;19.50;82.40;;;;;;4232969;27;20046;-58
2023/09/26 09:59:59;;;;;;;7.95;6.75;;;19.50;82.20;;;;;;4220289;28;20092;-60
2023/09/26 10:02:42;;;;;;;7.32;6.38;;;19.60;82.10;;;;;;4233695;27;20054;-57
2023/09/26 10:05:23;;;;;;;7.70;6.70;;;19.60;81.70;;;;;;4232865;27;20188;-54
2023/09/26 10:08:06;;;;;;;8.77;7.25;;;19.60;81.60;;;;;;4228535;27;20123;-53
2023/09/26 10:10:48;;;;;;;7.88;6.95;;;19.60;81.40;;;;;;4221066;28;20185;-52
2023/09/26 10:13:29;;;;;;;8.65;7.35;;;19.60;81.20;;;;;;4223446;27;20058;-51
2023/09/26 10:16:17;;;;;;;8.80;6.80;;;19.70;81.30;;;;;;4231277;27;20054;-51
2023/09/26 10:19:01;;;;;;;9.13;7.15;;;19.70;81.20;;;;;;4220397;28;20128;-52
2023/09/26 10:21:42;;;;;;;8.02;6.75;;;19.70;80.90;;;;;;4220658;28;20050;-53
2023/09/26 10:24:26;;;;;;;10.75;6.65;;;19.80;80.70;;;;;;4220905;28;20058;-50
2023/09/26 10:27:11;;;;;;;10.73;7.60;;;19.80;80.70;;;;;;4227246;27;20046;-54
2023/09/26 10:30:10;;;;;;;7.80;6.97;;;19.80;80.50;;;;;;4235510;27;20054;-52
2023/09/26 10:32:54;;;;;;;10.85;7.47;;;19.80;80.40;;;;;;4220630;28;20054;-54
2023/09/26 10:35:43;;;;;;;10.43;7.05;;;19.90;80.40;;;;;;4230298;27;20050;-52
2023/09/26 10:38:26;;;;;;;7.55;6.85;;;19.90;80.40;;;;;;4207844;28;20055;-51
2023/09/26 10:41:09;;;;;;;11.57;7.53;;;19.90;80.40;;;;;;4219903;28;20082;-50
2023/09/26 10:43:50;;;;;;;11.70;7.15;;;19.90;80.30;;;;;;4219009;28;20105;-54
2023/09/26 10:46:35;;;;;;;10.30;6.82;;;19.90;80.60;;;;;;4206343;28;20177;-53
2023/09/26 10:49:16;;;;;;;10.77;7.80;;;20.00;80.70;;;;;;4220551;28;20520;-51
2023/09/26 10:52:00;;;;;;;9.65;7.03;;;20.00;81.50;;;;;;4220418;28;20492;-51
2023/09/26 10:54:42;;;;;;;9.57;6.85;;;20.00;80.40;;;;;;4220712;27;20059;-52
2023/09/26 10:57:23;;;;;;;;;;;20.00;80.30;;;;;;4225057;27;20083;-50
2023/09/26 11:00:09;;;;;;;10.93;7.27;;;20.00;80.20;;;;;;4236369;27;20440;-51
2023/09/26 11:02:50;;;;;;;8.93;6.80;;;20.00;80.20;;;;;;4236283;28;20134;-52
2023/09/26 11:05:33;;;;;;;12.90;7.68;;;20.10;80.30;;;;;;4215902;28;20070;-49
2023/09/26 11:08:16;;;;;;;9.15;7.35;;;20.10;80.30;;;;;;4237647;28;20521;-51
2023/09/26 11:11:01;;;;;;;9.00;7.43;;;20.10;80.20;;;;;;4237294;28;20500;-51
2023/09/26 11:13:42;;;;;;;10.32;6.20;;;20.10;80.90;;;;;;4237013;28;20564;-53
2023/09/26 11:16:23;;;;;;;11.35;6.18;;;20.10;79.90;;;;;;4237423;28;20124;-52
2023/09/26 11:19:04;;;;;;;7.07;6.38;;;20.20;79.80;;;;;;4207693;28;20100;-53
2023/09/26 11:21:47;;;;;;;;;;;20.20;79.80;;;;;;4220477;28;20054;-52
2023/09/26 11:24:31;;;;;;;8.38;6.72;;;20.20;79.80;;;;;;4232486;28;19930;-53
2023/09/26 11:27:12;;;;;;;9.27;6.78;;;20.20;79.70;;;;;;4237004;28;20049;-54
2023/09/26 11:29:53;;;;;;;;;;;20.20;79.70;;;;;;4236856;28;20518;-53
2023/09/26 11:32:35;;;;;;;7.60;5.95;;;20.20;79.90;;;;;;4220355;28;19926;-51
2023/09/26 11:35:17;;;;;;;8.00;6.43;;;20.20;79.90;;;;;;4207865;28;20100;-53
2023/09/26 11:37:58;;;;;;;8.38;7.05;;;20.20;79.90;;;;;;4232016;28;20512;-52
2023/09/26 11:40:41;;;;;;;7.15;6.32;;;20.30;79.80;;;;;;4236477;28;20156;-53
2023/09/26 11:43:22;;;;;;;9.57;6.38;;;20.30;79.70;;;;;;4221278;28;20047;-53
2023/09/26 11:46:04;;;;;;;9.73;6.07;;;20.30;79.70;;;;;;4232185;28;20062;-54
2023/09/26 11:48:46;;;;;;;6.88;5.18;;;20.30;79.60;;;;;;4236574;28;20062;-55
2023/09/26 11:51:28;;;;;;;5.75;5.25;;;20.30;79.60;;;;;;4221527;28;20062;-52
2023/09/26 11:54:09;;;;;;;5.25;4.75;;;20.30;79.30;;;;;;4219499;28;20398;-53
2023/09/26 11:56:53;;;;;;;6.90;5.65;;;20.30;79.20;;;;;;4223958;27;20058;-50
2023/09/26 11:59:34;;;;;;;6.97;5.18;;;20.30;79.10;;;;;;4232055;28;20125;-50
2023/09/26 12:02:15;;;;;;;;;;;20.40;79.40;;;;;;4212635;28;20100;-48
2023/09/26 12:04:56;;;;;;;6.38;5.60;;;20.40;79.50;;;;;;4236970;28;20400;-52
2023/09/26 12:07:37;;;;;;;4.95;4.55;;;20.40;79.50;;;;;;4238373;27;20497;-55
2023/09/26 12:10:20;;;;;;;7.00;5.32;;;20.50;79.50;;;;;;4227522;27;20050;-58
2023/09/26 12:13:06;;;;;;;5.60;5.00;;;20.50;79.30;;;;;;4239346;27;20126;-58
2023/09/26 12:15:47;;;;;;;5.53;5.03;;;20.50;79.40;;;;;;4238383;27;20061;-57
2023/09/26 12:18:28;;;;;;;5.47;4.97;;;20.50;79.20;;;;;;4224350;27;20148;-57
2023/09/26 12:21:09;;;;;;;5.75;5.00;;;20.60;79.10;;;;;;4226641;27;20053;-56
2023/09/26 12:23:50;;;;;;;5.78;5.15;;;20.70;79.20;;;;;;4213852;28;20394;-57
2023/09/26 12:26:32;;;;;;;10.00;5.75;;;20.70;79.00;;;;;;4213509;27;20099;-56
2023/09/26 12:29:14;;;;;;;7.53;5.90;;;20.80;79.10;;;;;;4239366;27;20500;-53
2023/09/26 12:31:55;;;;;;;8.13;4.80;;;20.80;79.00;;;;;;4221903;28;20050;-53
2023/09/26 12:34:36;;;;;;;7.57;5.10;;;20.80;78.90;;;;;;4222438;28;20046;-54
2023/09/26 12:37:17;;;;;;;6.28;4.78;;;20.80;78.80;;;;;;4222724;28;20176;-57
2023/09/26 12:39:58;;;;;;;8.95;5.72;;;20.90;78.80;;;;;;4223149;27;20061;-59
2023/09/26 12:42:40;;;;;;;6.45;5.10;;;20.90;78.80;;;;;;4222806;27;20063;-58
2023/09/26 12:45:22;;;;;;;4.60;4.03;;;21.00;78.80;;;;;;4225902;27;20054;-59
2023/09/26 12:48:03;;;;;;;5.45;4.40;;;21.00;78.70;;;;;;4232191;27;20338;-58
2023/09/26 12:50:44;;;;;;;;;;;21.10;78.50;;;;;;4239968;27;20120;-58
2023/09/26 12:53:25;;;;;;;5.45;4.43;;;21.10;78.50;;;;;;4232828;27;20461;-59
2023/09/26 12:56:06;;;;;;;7.97;4.65;;;21.10;78.40;;;;;;4222111;27;20051;-60
2023/09/26 12:58:47;;;;;;;4.38;4.00;;;21.20;78.90;;;;;;4221676;28;20054;-60
2023/09/26 13:01:29;;;;;;;5.15;4.30;;;21.20;77.80;;;;;;4221934;28;20047;-60
2023/09/26 13:04:11;;;;;;;6.35;5.13;;;21.20;77.60;;;;;;4221977;28;20128;-58
2023/09/26 13:06:52;;;;;;;;;;;21.20;77.50;;;;;;4238121;27;20428;-59
2023/09/26 13:09:32;;;;;;;5.50;4.93;;;21.20;77.60;;;;;;4238341;27;19926;-60
2023/09/26 13:12:14;;;;;;;;;;;21.20;78.30;;;;;;4239192;27;20050;-60
2023/09/26 13:14:55;;;;;;;5.18;4.40;;;21.20;77.30;;;;;;4221249;28;20293;-58
2023/09/26 13:17:37;;;;;;;;;;;21.10;77.30;;;;;;4221934;28;20096;-59
2023/09/26 13:20:18;;;;;;;4.80;4.40;;;21.20;77.40;;;;;;4221986;28;19972;-59
2023/09/26 13:22:59;;;;;;;5.30;4.90;;;21.10;77.50;;;;;;4221728;27;20129;-59
2023/09/26 13:25:40;;;;;;;5.15;4.25;;;21.20;77.40;;;;;;4221547;28;20054;-59
2023/09/26 13:28:21;;;;;;;;;;;21.20;77.40;;;;;;4221959;28;20051;-60
2023/09/26 13:31:03;;;;;;;5.95;5.40;;;21.20;77.40;;;;;;4221674;28;19927;-60
2023/09/26 13:33:45;;;;;;;;;;;21.20;77.40;;;;;;4222719;27;20184;-59
2023/09/26 13:36:26;;;;;;;5.70;3.95;;;21.20;77.40;;;;;;4221262;28;19930;-60
2023/09/26 13:39:08;;;;;;;4.97;4.55;;;21.20;77.40;;;;;;4220934;28;20085;-60
2023/09/26 13:41:49;;;;;;;4.45;4.05;;;21.20;77.40;;;;;;4220856;28;20139;-60
2023/09/26 13:44:30;;;;;;;7.22;3.72;;;21.20;77.40;;;;;;4222881;27;20058;-60
2023/09/26 13:47:11;;;;;;;7.93;4.45;;;21.30;77.50;;;;;;4221615;28;20054;-60
2023/09/26 13:49:54;;;;;;;4.38;3.92;;;21.30;77.40;;;;;;4230414;27;20050;-59
2023/09/26 13:52:35;;;;;;;4.88;4.20;;;21.30;77.30;;;;;;4216359;28;20050;-60
2023/09/26 13:55:16;;;;;;;4.72;4.38;;;21.30;77.20;;;;;;4221246;28;20046;-59
2023/09/26 13:57:57;;;;;;;;;;;21.40;77.40;;;;;;4221340;28;20104;-60
2023/09/26 14:00:38;;;;;;;4.33;3.97;;;21.40;78.40;;;;;;4208663;28;19943;-59
2023/09/26 14:03:19;;;;;;;4.07;3.80;;;21.40;77.70;;;;;;4236508;27;20509;-60